sensor_id;sensor_type;location;lat;lon;timestamp;P1;durP1;ratioP1;P2;durP2;ratioP2
22774;SDS011;11554;51.106;3.684;2022-10-22T00:00:01;9.50;;;2.20;;
22774;SDS011;11554;51.106;3.684;2022-10-22T00:05:00;9.90;;;2.10;;
22774;SDS011;11554;51.106;3.684;2022-10-22T00:10:00;9.90;;;2.10;;
22774;SDS011;11554;51.106;3.684;2022-10-22T00:15:00;10.90;;;2.50;;
22774;SDS011;11554;51.106;3.684;2022-10-22T00:20:00;10.90;;;2.50;;
22774;SDS011;11554;51.106;3.684;2022-10-22T00:25:00;8.90;;;1.80;;
22774;SDS011;11554;51.106;3.684;2022-10-22T00:30:00;8.90;;;1.80;;
22774;SDS011;11554;51.106;3.684;2022-10-22T00:35:00;10.10;;;2.30;;
22774;SDS011;11554;51.106;3.684;2022-10-22T00:40:00;10.10;;;2.30;;
22774;SDS011;11554;51.106;3.684;2022-10-22T00:45:09;8.30;;;2.00;;
22774;SDS011;11554;51.106;3.684;2022-10-22T00:50:01;8.30;;;2.00;;
22774;SDS011;11554;51.106;3.684;2022-10-22T00:55:00;12.10;;;2.30;;
22774;SDS011;11554;51.106;3.684;2022-10-22T01:00:00;12.10;;;2.30;;
22774;SDS011;11554;51.106;3.684;2022-10-22T01:05:00;10.30;;;2.60;;
22774;SDS011;11554;51.106;3.684;2022-10-22T01:10:06;10.30;;;2.60;;
22774;SDS011;11554;51.106;3.684;2022-10-22T01:15:09;8.40;;;2.10;;
22774;SDS011;11554;51.106;3.684;2022-10-22T01:20:09;8.40;;;2.10;;
22774;SDS011;11554;51.106;3.684;2022-10-22T01:25:04;13.80;;;2.50;;
22774;SDS011;11554;51.106;3.684;2022-10-22T01:30:03;13.80;;;2.50;;
22774;SDS011;11554;51.106;3.684;2022-10-22T01:35:02;6.80;;;1.90;;
22774;SDS011;11554;51.106;3.684;2022-10-22T01:40:00;6.80;;;1.90;;
22774;SDS011;11554;51.106;3.684;2022-10-22T01:45:00;9.80;;;1.90;;
22774;SDS011;11554;51.106;3.684;2022-10-22T01:55:06;9.70;;;1.80;;
22774;SDS011;11554;51.106;3.684;2022-10-22T02:00:03;9.70;;;1.80;;
22774;SDS011;11554;51.106;3.684;2022-10-22T02:05:04;8.60;;;1.80;;
22774;SDS011;11554;51.106;3.684;2022-10-22T02:10:01;8.60;;;1.80;;
22774;SDS011;11554;51.106;3.684;2022-10-22T02:15:01;11.70;;;2.40;;
22774;SDS011;11554;51.106;3.684;2022-10-22T02:20:03;11.70;;;2.40;;
22774;SDS011;11554;51.106;3.684;2022-10-22T02:25:00;7.60;;;2.10;;
22774;SDS011;11554;51.106;3.684;2022-10-22T02:30:02;7.60;;;2.10;;
22774;SDS011;11554;51.106;3.684;2022-10-22T02:35:00;8.40;;;2.00;;
22774;SDS011;11554;51.106;3.684;2022-10-22T02:40:00;8.40;;;2.00;;
22774;SDS011;11554;51.106;3.684;2022-10-22T02:45:00;12.80;;;2.20;;
22774;SDS011;11554;51.106;3.684;2022-10-22T02:50:00;12.80;;;2.20;;
22774;SDS011;11554;51.106;3.684;2022-10-22T02:55:00;12.30;;;2.20;;
22774;SDS011;11554;51.106;3.684;2022-10-22T03:00:00;12.30;;;2.20;;
22774;SDS011;11554;51.106;3.684;2022-10-22T03:05:00;8.30;;;1.80;;
22774;SDS011;11554;51.106;3.684;2022-10-22T03:10:00;8.30;;;1.80;;
22774;SDS011;11554;51.106;3.684;2022-10-22T03:15:00;12.10;;;1.90;;
22774;SDS011;11554;51.106;3.684;2022-10-22T03:20:00;12.10;;;1.90;;
22774;SDS011;11554;51.106;3.684;2022-10-22T03:25:06;8.30;;;2.00;;
22774;SDS011;11554;51.106;3.684;2022-10-22T03:30:00;8.30;;;2.00;;
22774;SDS011;11554;51.106;3.684;2022-10-22T03:35:00;11.50;;;2.40;;
22774;SDS011;11554;51.106;3.684;2022-10-22T03:40:00;11.50;;;2.40;;
22774;SDS011;11554;51.106;3.684;2022-10-22T03:45:00;10.60;;;2.10;;
22774;SDS011;11554;51.106;3.684;2022-10-22T03:50:00;10.60;;;2.10;;
22774;SDS011;11554;51.106;3.684;2022-10-22T03:55:00;11.80;;;2.00;;
22774;SDS011;11554;51.106;3.684;2022-10-22T04:00:00;11.80;;;2.00;;
22774;SDS011;11554;51.106;3.684;2022-10-22T04:05:00;7.50;;;1.70;;
22774;SDS011;11554;51.106;3.684;2022-10-22T04:10:00;7.50;;;1.70;;
22774;SDS011;11554;51.106;3.684;2022-10-22T04:15:00;8.60;;;1.70;;
22774;SDS011;11554;51.106;3.684;2022-10-22T04:20:00;8.60;;;1.70;;
22774;SDS011;11554;51.106;3.684;2022-10-22T04:25:00;8.40;;;2.00;;
22774;SDS011;11554;51.106;3.684;2022-10-22T04:30:00;8.40;;;2.00;;
22774;SDS011;11554;51.106;3.684;2022-10-22T04:35:00;10.20;;;2.30;;
22774;SDS011;11554;51.106;3.684;2022-10-22T04:40:00;10.20;;;2.30;;
22774;SDS011;11554;51.106;3.684;2022-10-22T04:45:00;8.70;;;2.00;;
22774;SDS011;11554;51.106;3.684;2022-10-22T04:50:00;8.70;;;2.00;;
22774;SDS011;11554;51.106;3.684;2022-10-22T04:55:00;13.20;;;2.40;;
22774;SDS011;11554;51.106;3.684;2022-10-22T05:00:00;13.20;;;2.40;;
22774;SDS011;11554;51.106;3.684;2022-10-22T05:05:01;12.60;;;2.20;;
22774;SDS011;11554;51.106;3.684;2022-10-22T05:10:00;12.60;;;2.20;;
22774;SDS011;11554;51.106;3.684;2022-10-22T05:15:00;8.30;;;1.90;;
22774;SDS011;11554;51.106;3.684;2022-10-22T05:20:00;8.30;;;1.90;;
22774;SDS011;11554;51.106;3.684;2022-10-22T05:25:00;10.50;;;1.70;;
22774;SDS011;11554;51.106;3.684;2022-10-22T05:30:00;10.50;;;1.70;;
22774;SDS011;11554;51.106;3.684;2022-10-22T05:35:00;10.20;;;1.90;;
22774;SDS011;11554;51.106;3.684;2022-10-22T05:40:00;10.20;;;1.90;;
22774;SDS011;11554;51.106;3.684;2022-10-22T05:45:00;9.00;;;1.90;;
22774;SDS011;11554;51.106;3.684;2022-10-22T05:50:00;9.00;;;1.90;;
22774;SDS011;11554;51.106;3.684;2022-10-22T05:55:00;10.00;;;1.70;;
22774;SDS011;11554;51.106;3.684;2022-10-22T06:00:00;10.00;;;1.70;;
22774;SDS011;11554;51.106;3.684;2022-10-22T06:05:00;9.80;;;1.90;;
22774;SDS011;11554;51.106;3.684;2022-10-22T06:10:00;9.80;;;1.90;;
22774;SDS011;11554;51.106;3.684;2022-10-22T06:15:00;11.40;;;2.00;;
22774;SDS011;11554;51.106;3.684;2022-10-22T06:20:00;11.40;;;2.00;;
22774;SDS011;11554;51.106;3.684;2022-10-22T06:25:00;8.80;;;1.80;;
22774;SDS011;11554;51.106;3.684;2022-10-22T06:30:00;8.80;;;1.80;;
22774;SDS011;11554;51.106;3.684;2022-10-22T06:35:00;9.70;;;1.70;;
22774;SDS011;11554;51.106;3.684;2022-10-22T06:40:00;9.70;;;1.70;;
22774;SDS011;11554;51.106;3.684;2022-10-22T06:45:00;11.30;;;2.20;;
22774;SDS011;11554;51.106;3.684;2022-10-22T06:50:00;11.30;;;2.20;;
22774;SDS011;11554;51.106;3.684;2022-10-22T06:55:00;11.90;;;1.70;;
22774;SDS011;11554;51.106;3.684;2022-10-22T07:00:00;11.90;;;1.70;;
22774;SDS011;11554;51.106;3.684;2022-10-22T07:05:00;12.00;;;2.10;;
22774;SDS011;11554;51.106;3.684;2022-10-22T07:10:00;12.00;;;2.10;;
22774;SDS011;11554;51.106;3.684;2022-10-22T07:15:00;13.70;;;2.30;;
22774;SDS011;11554;51.106;3.684;2022-10-22T07:20:00;13.70;;;2.30;;
22774;SDS011;11554;51.106;3.684;2022-10-22T07:25:00;9.10;;;1.70;;
22774;SDS011;11554;51.106;3.684;2022-10-22T07:30:00;9.10;;;1.70;;
22774;SDS011;11554;51.106;3.684;2022-10-22T07:35:00;10.70;;;2.00;;
22774;SDS011;11554;51.106;3.684;2022-10-22T07:40:00;10.70;;;2.00;;
22774;SDS011;11554;51.106;3.684;2022-10-22T07:45:00;10.70;;;1.70;;
22774;SDS011;11554;51.106;3.684;2022-10-22T07:50:00;10.70;;;1.70;;
22774;SDS011;11554;51.106;3.684;2022-10-22T07:55:00;11.90;;;1.90;;
22774;SDS011;11554;51.106;3.684;2022-10-22T08:00:00;11.90;;;1.90;;
22774;SDS011;11554;51.106;3.684;2022-10-22T08:05:00;12.50;;;2.10;;
22774;SDS011;11554;51.106;3.684;2022-10-22T08:10:00;12.50;;;2.10;;
22774;SDS011;11554;51.106;3.684;2022-10-22T08:15:00;11.10;;;2.00;;
22774;SDS011;11554;51.106;3.684;2022-10-22T08:20:00;11.10;;;2.00;;
22774;SDS011;11554;51.106;3.684;2022-10-22T08:25:00;10.40;;;1.90;;
22774;SDS011;11554;51.106;3.684;2022-10-22T08:35:00;12.90;;;2.00;;
22774;SDS011;11554;51.106;3.684;2022-10-22T08:40:00;12.90;;;2.00;;
22774;SDS011;11554;51.106;3.684;2022-10-22T08:45:07;13.80;;;2.00;;
22774;SDS011;11554;51.106;3.684;2022-10-22T08:50:00;13.80;;;2.00;;
22774;SDS011;11554;51.106;3.684;2022-10-22T08:55:01;10.20;;;1.80;;
22774;SDS011;11554;51.106;3.684;2022-10-22T09:00:03;10.20;;;1.80;;
22774;SDS011;11554;51.106;3.684;2022-10-22T09:05:04;9.10;;;1.70;;
22774;SDS011;11554;51.106;3.684;2022-10-22T09:10:00;9.10;;;1.70;;
22774;SDS011;11554;51.106;3.684;2022-10-22T09:15:00;11.20;;;2.00;;
22774;SDS011;11554;51.106;3.684;2022-10-22T09:20:08;11.20;;;2.00;;
22774;SDS011;11554;51.106;3.684;2022-10-22T09:25:10;8.80;;;2.00;;
22774;SDS011;11554;51.106;3.684;2022-10-22T09:30:00;8.80;;;2.00;;
22774;SDS011;11554;51.106;3.684;2022-10-22T09:35:00;10.90;;;2.40;;
22774;SDS011;11554;51.106;3.684;2022-10-22T09:40:03;10.90;;;2.40;;
22774;SDS011;11554;51.106;3.684;2022-10-22T09:45:00;11.90;;;2.20;;
22774;SDS011;11554;51.106;3.684;2022-10-22T09:50:05;11.90;;;2.20;;
22774;SDS011;11554;51.106;3.684;2022-10-22T09:55:00;11.70;;;2.10;;
22774;SDS011;11554;51.106;3.684;2022-10-22T10:00:00;11.70;;;2.10;;
22774;SDS011;11554;51.106;3.684;2022-10-22T10:05:02;10.30;;;1.80;;
22774;SDS011;11554;51.106;3.684;2022-10-22T10:10:00;10.30;;;1.80;;
22774;SDS011;11554;51.106;3.684;2022-10-22T10:15:11;9.90;;;2.00;;
22774;SDS011;11554;51.106;3.684;2022-10-22T10:20:12;9.90;;;2.00;;
22774;SDS011;11554;51.106;3.684;2022-10-22T10:25:26;8.30;;;2.00;;
22774;SDS011;11554;51.106;3.684;2022-10-22T10:30:05;8.30;;;2.00;;
22774;SDS011;11554;51.106;3.684;2022-10-22T10:35:12;10.70;;;1.80;;
22774;SDS011;11554;51.106;3.684;2022-10-22T10:40:14;10.70;;;1.80;;
22774;SDS011;11554;51.106;3.684;2022-10-22T10:45:10;11.00;;;2.00;;
22774;SDS011;11554;51.106;3.684;2022-10-22T10:50:15;11.00;;;2.00;;
22774;SDS011;11554;51.106;3.684;2022-10-22T10:55:10;10.60;;;2.20;;
22774;SDS011;11554;51.106;3.684;2022-10-22T11:00:04;10.60;;;2.20;;
22774;SDS011;11554;51.106;3.684;2022-10-22T11:05:12;12.60;;;2.10;;
22774;SDS011;11554;51.106;3.684;2022-10-22T11:10:06;12.60;;;2.10;;
22774;SDS011;11554;51.106;3.684;2022-10-22T11:15:02;8.20;;;1.90;;
22774;SDS011;11554;51.106;3.684;2022-10-22T11:20:04;8.20;;;1.90;;
22774;SDS011;11554;51.106;3.684;2022-10-22T11:25:05;8.80;;;1.80;;
22774;SDS011;11554;51.106;3.684;2022-10-22T11:30:03;8.80;;;1.80;;
22774;SDS011;11554;51.106;3.684;2022-10-22T11:35:02;8.00;;;1.90;;
22774;SDS011;11554;51.106;3.684;2022-10-22T11:40:04;8.00;;;1.90;;
22774;SDS011;11554;51.106;3.684;2022-10-22T11:45:02;8.60;;;1.70;;
22774;SDS011;11554;51.106;3.684;2022-10-22T11:50:19;8.60;;;1.70;;
22774;SDS011;11554;51.106;3.684;2022-10-22T11:55:01;8.30;;;1.60;;
22774;SDS011;11554;51.106;3.684;2022-10-22T12:00:08;8.30;;;1.60;;
22774;SDS011;11554;51.106;3.684;2022-10-22T12:10:04;12.10;;;2.00;;
22774;SDS011;11554;51.106;3.684;2022-10-22T12:15:00;8.10;;;1.80;;
22774;SDS011;11554;51.106;3.684;2022-10-22T12:20:03;8.10;;;1.80;;
22774;SDS011;11554;51.106;3.684;2022-10-22T12:25:02;6.60;;;1.60;;
22774;SDS011;11554;51.106;3.684;2022-10-22T12:30:02;6.60;;;1.60;;
22774;SDS011;11554;51.106;3.684;2022-10-22T12:35:04;9.60;;;1.50;;
22774;SDS011;11554;51.106;3.684;2022-10-22T12:40:00;9.60;;;1.50;;
22774;SDS011;11554;51.106;3.684;2022-10-22T12:45:00;8.80;;;1.70;;
22774;SDS011;11554;51.106;3.684;2022-10-22T12:50:02;8.80;;;1.70;;
22774;SDS011;11554;51.106;3.684;2022-10-22T12:55:04;8.60;;;1.80;;
22774;SDS011;11554;51.106;3.684;2022-10-22T13:00:00;8.60;;;1.80;;
22774;SDS011;11554;51.106;3.684;2022-10-22T13:05:13;7.60;;;1.30;;
22774;SDS011;11554;51.106;3.684;2022-10-22T13:10:00;7.60;;;1.30;;
22774;SDS011;11554;51.106;3.684;2022-10-22T13:15:18;8.10;;;1.50;;
22774;SDS011;11554;51.106;3.684;2022-10-22T13:20:02;8.10;;;1.50;;
22774;SDS011;11554;51.106;3.684;2022-10-22T13:30:20;6.70;;;1.80;;
22774;SDS011;11554;51.106;3.684;2022-10-22T13:35:01;6.70;;;1.40;;
22774;SDS011;11554;51.106;3.684;2022-10-22T13:40:00;6.70;;;1.40;;
22774;SDS011;11554;51.106;3.684;2022-10-22T13:45:00;7.90;;;1.40;;
22774;SDS011;11554;51.106;3.684;2022-10-22T13:50:03;7.90;;;1.40;;
22774;SDS011;11554;51.106;3.684;2022-10-22T13:55:00;6.20;;;1.30;;
22774;SDS011;11554;51.106;3.684;2022-10-22T14:00:00;6.20;;;1.30;;
22774;SDS011;11554;51.106;3.684;2022-10-22T14:05:00;7.10;;;1.30;;
22774;SDS011;11554;51.106;3.684;2022-10-22T14:10:00;7.10;;;1.30;;
22774;SDS011;11554;51.106;3.684;2022-10-22T14:15:00;8.60;;;1.40;;
22774;SDS011;11554;51.106;3.684;2022-10-22T14:20:00;8.60;;;1.40;;
22774;SDS011;11554;51.106;3.684;2022-10-22T14:25:00;7.70;;;1.40;;
22774;SDS011;11554;51.106;3.684;2022-10-22T14:30:00;7.70;;;1.40;;
22774;SDS011;11554;51.106;3.684;2022-10-22T14:35:00;6.00;;;1.30;;
22774;SDS011;11554;51.106;3.684;2022-10-22T14:40:00;6.00;;;1.30;;
22774;SDS011;11554;51.106;3.684;2022-10-22T14:45:00;5.50;;;1.30;;
22774;SDS011;11554;51.106;3.684;2022-10-22T14:50:00;5.50;;;1.30;;
22774;SDS011;11554;51.106;3.684;2022-10-22T14:55:00;7.20;;;1.50;;
22774;SDS011;11554;51.106;3.684;2022-10-22T15:00:01;7.20;;;1.50;;
22774;SDS011;11554;51.106;3.684;2022-10-22T15:05:00;8.40;;;1.50;;
22774;SDS011;11554;51.106;3.684;2022-10-22T15:10:00;8.40;;;1.50;;
22774;SDS011;11554;51.106;3.684;2022-10-22T15:15:00;6.90;;;1.20;;
22774;SDS011;11554;51.106;3.684;2022-10-22T15:20:00;6.90;;;1.20;;
22774;SDS011;11554;51.106;3.684;2022-10-22T15:25:00;5.20;;;1.30;;
22774;SDS011;11554;51.106;3.684;2022-10-22T15:30:00;5.20;;;1.30;;
22774;SDS011;11554;51.106;3.684;2022-10-22T15:35:00;6.40;;;1.40;;
22774;SDS011;11554;51.106;3.684;2022-10-22T15:40:00;6.40;;;1.40;;
22774;SDS011;11554;51.106;3.684;2022-10-22T15:45:00;7.70;;;1.50;;
22774;SDS011;11554;51.106;3.684;2022-10-22T15:50:00;7.70;;;1.50;;
22774;SDS011;11554;51.106;3.684;2022-10-22T15:55:00;5.90;;;1.10;;
22774;SDS011;11554;51.106;3.684;2022-10-22T16:00:00;5.90;;;1.10;;
22774;SDS011;11554;51.106;3.684;2022-10-22T16:05:00;5.50;;;1.60;;
22774;SDS011;11554;51.106;3.684;2022-10-22T16:10:00;5.50;;;1.60;;
22774;SDS011;11554;51.106;3.684;2022-10-22T16:15:00;10.70;;;1.90;;
22774;SDS011;11554;51.106;3.684;2022-10-22T16:20:00;10.70;;;1.90;;
22774;SDS011;11554;51.106;3.684;2022-10-22T16:25:00;8.50;;;2.20;;
22774;SDS011;11554;51.106;3.684;2022-10-22T16:30:00;8.50;;;2.20;;
22774;SDS011;11554;51.106;3.684;2022-10-22T16:35:00;6.90;;;1.50;;
22774;SDS011;11554;51.106;3.684;2022-10-22T16:40:00;6.90;;;1.50;;
22774;SDS011;11554;51.106;3.684;2022-10-22T16:45:00;10.30;;;1.80;;
22774;SDS011;11554;51.106;3.684;2022-10-22T16:50:00;10.30;;;1.80;;
22774;SDS011;11554;51.106;3.684;2022-10-22T16:55:00;7.90;;;1.80;;
22774;SDS011;11554;51.106;3.684;2022-10-22T17:00:00;7.90;;;1.80;;
22774;SDS011;11554;51.106;3.684;2022-10-22T17:05:00;10.20;;;2.10;;
22774;SDS011;11554;51.106;3.684;2022-10-22T17:10:00;10.20;;;2.10;;
22774;SDS011;11554;51.106;3.684;2022-10-22T17:15:00;6.50;;;1.60;;
22774;SDS011;11554;51.106;3.684;2022-10-22T17:20:00;6.50;;;1.60;;
22774;SDS011;11554;51.106;3.684;2022-10-22T17:25:07;8.80;;;2.50;;
22774;SDS011;11554;51.106;3.684;2022-10-22T17:30:00;8.80;;;2.50;;
22774;SDS011;11554;51.106;3.684;2022-10-22T17:35:00;10.20;;;3.00;;
22774;SDS011;11554;51.106;3.684;2022-10-22T17:40:00;10.20;;;3.00;;
22774;SDS011;11554;51.106;3.684;2022-10-22T17:45:00;9.40;;;3.30;;
22774;SDS011;11554;51.106;3.684;2022-10-22T17:50:00;9.40;;;3.30;;
22774;SDS011;11554;51.106;3.684;2022-10-22T17:55:00;11.10;;;5.50;;
22774;SDS011;11554;51.106;3.684;2022-10-22T18:00:00;11.10;;;5.50;;
22774;SDS011;11554;51.106;3.684;2022-10-22T18:05:00;14.60;;;6.00;;
22774;SDS011;11554;51.106;3.684;2022-10-22T18:10:00;14.60;;;6.00;;
22774;SDS011;11554;51.106;3.684;2022-10-22T18:15:00;13.30;;;5.80;;
22774;SDS011;11554;51.106;3.684;2022-10-22T18:20:00;13.30;;;5.80;;
22774;SDS011;11554;51.106;3.684;2022-10-22T18:25:00;13.80;;;5.70;;
22774;SDS011;11554;51.106;3.684;2022-10-22T18:30:00;13.80;;;5.70;;
22774;SDS011;11554;51.106;3.684;2022-10-22T18:35:00;12.30;;;4.40;;
22774;SDS011;11554;51.106;3.684;2022-10-22T18:40:00;12.30;;;4.40;;
22774;SDS011;11554;51.106;3.684;2022-10-22T18:45:00;13.00;;;4.60;;
22774;SDS011;11554;51.106;3.684;2022-10-22T18:50:00;13.00;;;4.60;;
22774;SDS011;11554;51.106;3.684;2022-10-22T18:55:00;14.80;;;6.80;;
22774;SDS011;11554;51.106;3.684;2022-10-22T19:00:00;14.80;;;6.80;;
22774;SDS011;11554;51.106;3.684;2022-10-22T19:05:00;13.40;;;4.90;;
22774;SDS011;11554;51.106;3.684;2022-10-22T19:10:00;13.40;;;4.90;;
22774;SDS011;11554;51.106;3.684;2022-10-22T19:15:00;13.20;;;6.30;;
22774;SDS011;11554;51.106;3.684;2022-10-22T19:20:00;13.20;;;6.30;;
22774;SDS011;11554;51.106;3.684;2022-10-22T19:25:00;15.90;;;6.80;;
22774;SDS011;11554;51.106;3.684;2022-10-22T19:30:00;15.90;;;6.80;;
22774;SDS011;11554;51.106;3.684;2022-10-22T19:35:00;15.20;;;6.10;;
22774;SDS011;11554;51.106;3.684;2022-10-22T19:40:00;15.20;;;6.10;;
22774;SDS011;11554;51.106;3.684;2022-10-22T19:45:00;12.90;;;5.70;;
22774;SDS011;11554;51.106;3.684;2022-10-22T19:50:00;12.90;;;5.70;;
22774;SDS011;11554;51.106;3.684;2022-10-22T19:55:00;13.00;;;5.10;;
22774;SDS011;11554;51.106;3.684;2022-10-22T20:00:00;13.00;;;5.10;;
22774;SDS011;11554;51.106;3.684;2022-10-22T20:05:00;14.30;;;5.90;;
22774;SDS011;11554;51.106;3.684;2022-10-22T20:10:00;14.30;;;5.90;;
22774;SDS011;11554;51.106;3.684;2022-10-22T20:15:00;12.60;;;5.90;;
22774;SDS011;11554;51.106;3.684;2022-10-22T20:20:00;12.60;;;5.90;;
22774;SDS011;11554;51.106;3.684;2022-10-22T20:25:00;12.90;;;5.60;;
22774;SDS011;11554;51.106;3.684;2022-10-22T20:30:00;12.90;;;5.60;;
22774;SDS011;11554;51.106;3.684;2022-10-22T20:35:00;14.50;;;5.70;;
22774;SDS011;11554;51.106;3.684;2022-10-22T20:40:00;14.50;;;5.70;;
22774;SDS011;11554;51.106;3.684;2022-10-22T20:45:00;13.40;;;5.70;;
22774;SDS011;11554;51.106;3.684;2022-10-22T20:50:00;13.40;;;5.70;;
22774;SDS011;11554;51.106;3.684;2022-10-22T20:55:00;13.40;;;5.40;;
22774;SDS011;11554;51.106;3.684;2022-10-22T21:00:00;13.40;;;5.40;;
22774;SDS011;11554;51.106;3.684;2022-10-22T21:05:00;11.50;;;5.20;;
22774;SDS011;11554;51.106;3.684;2022-10-22T21:10:00;11.50;;;5.20;;
22774;SDS011;11554;51.106;3.684;2022-10-22T21:15:00;14.90;;;6.10;;
22774;SDS011;11554;51.106;3.684;2022-10-22T21:20:00;14.90;;;6.10;;
22774;SDS011;11554;51.106;3.684;2022-10-22T21:25:00;11.80;;;5.80;;
22774;SDS011;11554;51.106;3.684;2022-10-22T21:30:00;11.80;;;5.80;;
22774;SDS011;11554;51.106;3.684;2022-10-22T21:35:00;11.10;;;5.10;;
22774;SDS011;11554;51.106;3.684;2022-10-22T21:40:00;11.10;;;5.10;;
22774;SDS011;11554;51.106;3.684;2022-10-22T21:45:00;12.90;;;5.90;;
22774;SDS011;11554;51.106;3.684;2022-10-22T21:50:00;12.90;;;5.90;;
22774;SDS011;11554;51.106;3.684;2022-10-22T21:55:00;16.50;;;6.30;;
22774;SDS011;11554;51.106;3.684;2022-10-22T22:00:00;16.50;;;6.30;;
22774;SDS011;11554;51.106;3.684;2022-10-22T22:05:00;13.40;;;6.20;;
22774;SDS011;11554;51.106;3.684;2022-10-22T22:10:00;13.40;;;6.20;;
22774;SDS011;11554;51.106;3.684;2022-10-22T22:15:00;14.10;;;6.10;;
22774;SDS011;11554;51.106;3.684;2022-10-22T22:20:00;14.10;;;6.10;;
22774;SDS011;11554;51.106;3.684;2022-10-22T22:25:00;11.10;;;5.50;;
22774;SDS011;11554;51.106;3.684;2022-10-22T22:30:00;11.10;;;5.50;;
22774;SDS011;11554;51.106;3.684;2022-10-22T22:35:00;14.20;;;5.90;;
22774;SDS011;11554;51.106;3.684;2022-10-22T22:40:00;14.20;;;5.90;;
22774;SDS011;11554;51.106;3.684;2022-10-22T22:45:00;13.40;;;6.30;;
22774;SDS011;11554;51.106;3.684;2022-10-22T22:50:00;13.40;;;6.30;;
22774;SDS011;11554;51.106;3.684;2022-10-22T22:55:00;14.30;;;6.30;;
22774;SDS011;11554;51.106;3.684;2022-10-22T23:00:00;14.30;;;6.30;;
22774;SDS011;11554;51.106;3.684;2022-10-22T23:05:00;16.20;;;6.00;;
22774;SDS011;11554;51.106;3.684;2022-10-22T23:10:00;16.20;;;6.00;;
22774;SDS011;11554;51.106;3.684;2022-10-22T23:15:00;11.10;;;5.40;;
22774;SDS011;11554;51.106;3.684;2022-10-22T23:20:00;11.10;;;5.40;;
22774;SDS011;11554;51.106;3.684;2022-10-22T23:25:00;11.80;;;5.50;;
22774;SDS011;11554;51.106;3.684;2022-10-22T23:30:00;11.80;;;5.50;;
22774;SDS011;11554;51.106;3.684;2022-10-22T23:35:00;20.10;;;6.60;;
22774;SDS011;11554;51.106;3.684;2022-10-22T23:40:00;20.10;;;6.60;;
22774;SDS011;11554;51.106;3.684;2022-10-22T23:45:00;10.10;;;5.70;;
22774;SDS011;11554;51.106;3.684;2022-10-22T23:50:00;10.10;;;5.70;;
22774;SDS011;11554;51.106;3.684;2022-10-22T23:55:00;13.00;;;6.50;;
